sensor_id;sensor_type;location;lat;lon;timestamp;P1;durP1;ratioP1;P2;durP2;ratioP2
3523;SDS011;1776;53.330;11.498;2022-07-23T00:02:19;6.57;;;4.20;;
3523;SDS011;1776;53.330;11.498;2022-07-23T00:04:44;7.00;;;3.33;;
3523;SDS011;1776;53.330;11.498;2022-07-23T00:07:09;5.50;;;3.50;;
3523;SDS011;1776;53.330;11.498;2022-07-23T00:09:34;3.63;;;3.30;;
3523;SDS011;1776;53.330;11.498;2022-07-23T00:12:00;4.50;;;3.30;;
3523;SDS011;1776;53.330;11.498;2022-07-23T00:14:25;4.23;;;2.73;;
3523;SDS011;1776;53.330;11.498;2022-07-23T00:16:50;4.10;;;2.53;;
3523;SDS011;1776;53.330;11.498;2022-07-23T00:19:16;5.20;;;3.23;;
3523;SDS011;1776;53.330;11.498;2022-07-23T00:21:41;8.03;;;1.90;;
3523;SDS011;1776;53.330;11.498;2022-07-23T00:24:06;3.20;;;1.70;;
3523;SDS011;1776;53.330;11.498;2022-07-23T00:26:31;5.77;;;2.10;;
3523;SDS011;1776;53.330;11.498;2022-07-23T00:28:57;3.23;;;2.40;;
3523;SDS011;1776;53.330;11.498;2022-07-23T00:31:22;2.73;;;2.30;;
3523;SDS011;1776;53.330;11.498;2022-07-23T00:33:47;5.90;;;2.50;;
3523;SDS011;1776;53.330;11.498;2022-07-23T00:36:13;2.93;;;2.40;;
3523;SDS011;1776;53.330;11.498;2022-07-23T00:38:38;6.37;;;2.57;;
3523;SDS011;1776;53.330;11.498;2022-07-23T00:41:03;7.47;;;2.67;;
3523;SDS011;1776;53.330;11.498;2022-07-23T00:43:29;11.87;;;3.40;;
3523;SDS011;1776;53.330;11.498;2022-07-23T00:45:54;3.60;;;2.03;;
3523;SDS011;1776;53.330;11.498;2022-07-23T00:48:19;4.80;;;2.27;;
3523;SDS011;1776;53.330;11.498;2022-07-23T00:50:45;3.50;;;2.53;;
3523;SDS011;1776;53.330;11.498;2022-07-23T00:53:10;4.10;;;2.70;;
3523;SDS011;1776;53.330;11.498;2022-07-23T00:55:36;2.20;;;2.00;;
3523;SDS011;1776;53.330;11.498;2022-07-23T00:58:03;5.30;;;2.40;;
3523;SDS011;1776;53.330;11.498;2022-07-23T01:00:29;6.70;;;2.40;;
3523;SDS011;1776;53.330;11.498;2022-07-23T01:02:55;2.97;;;2.30;;
3523;SDS011;1776;53.330;11.498;2022-07-23T01:05:20;4.20;;;2.40;;
3523;SDS011;1776;53.330;11.498;2022-07-23T01:07:48;7.40;;;2.63;;
3523;SDS011;1776;53.330;11.498;2022-07-23T01:10:14;4.23;;;1.93;;
3523;SDS011;1776;53.330;11.498;2022-07-23T01:12:59;3.10;;;2.20;;
3523;SDS011;1776;53.330;11.498;2022-07-23T01:15:26;3.23;;;2.07;;
3523;SDS011;1776;53.330;11.498;2022-07-23T01:17:51;3.80;;;2.50;;
3523;SDS011;1776;53.330;11.498;2022-07-23T01:20:17;3.80;;;2.60;;
3523;SDS011;1776;53.330;11.498;2022-07-23T01:22:43;6.13;;;2.53;;
3523;SDS011;1776;53.330;11.498;2022-07-23T01:25:09;5.40;;;2.87;;
3523;SDS011;1776;53.330;11.498;2022-07-23T01:27:34;5.00;;;2.60;;
3523;SDS011;1776;53.330;11.498;2022-07-23T01:30:00;3.90;;;2.70;;
3523;SDS011;1776;53.330;11.498;2022-07-23T01:32:26;2.50;;;2.07;;
3523;SDS011;1776;53.330;11.498;2022-07-23T01:34:51;7.33;;;2.97;;
3523;SDS011;1776;53.330;11.498;2022-07-23T01:37:17;3.67;;;2.43;;
3523;SDS011;1776;53.330;11.498;2022-07-23T01:39:42;10.73;;;3.07;;
3523;SDS011;1776;53.330;11.498;2022-07-23T01:42:08;6.93;;;2.43;;
3523;SDS011;1776;53.330;11.498;2022-07-23T01:44:33;3.10;;;2.43;;
3523;SDS011;1776;53.330;11.498;2022-07-23T01:46:58;3.03;;;2.03;;
3523;SDS011;1776;53.330;11.498;2022-07-23T01:49:23;3.23;;;2.30;;
3523;SDS011;1776;53.330;11.498;2022-07-23T01:51:49;2.77;;;2.37;;
3523;SDS011;1776;53.330;11.498;2022-07-23T01:54:27;2.47;;;2.27;;
3523;SDS011;1776;53.330;11.498;2022-07-23T01:56:53;2.43;;;2.30;;
3523;SDS011;1776;53.330;11.498;2022-07-23T01:59:18;6.30;;;2.80;;
3523;SDS011;1776;53.330;11.498;2022-07-23T02:01:45;4.23;;;2.80;;
3523;SDS011;1776;53.330;11.498;2022-07-23T02:04:10;5.60;;;2.80;;
3523;SDS011;1776;53.330;11.498;2022-07-23T02:06:35;9.17;;;3.10;;
3523;SDS011;1776;53.330;11.498;2022-07-23T02:09:00;7.30;;;3.03;;
3523;SDS011;1776;53.330;11.498;2022-07-23T02:11:26;7.93;;;3.27;;
3523;SDS011;1776;53.330;11.498;2022-07-23T02:13:51;3.03;;;2.80;;
3523;SDS011;1776;53.330;11.498;2022-07-23T02:16:16;5.30;;;2.60;;
3523;SDS011;1776;53.330;11.498;2022-07-23T02:18:42;7.70;;;2.23;;
3523;SDS011;1776;53.330;11.498;2022-07-23T02:21:07;6.60;;;2.47;;
3523;SDS011;1776;53.330;11.498;2022-07-23T02:23:32;5.27;;;2.47;;
3523;SDS011;1776;53.330;11.498;2022-07-23T02:25:57;6.80;;;2.50;;
3523;SDS011;1776;53.330;11.498;2022-07-23T02:28:23;5.43;;;1.97;;
3523;SDS011;1776;53.330;11.498;2022-07-23T02:30:48;4.37;;;2.40;;
3523;SDS011;1776;53.330;11.498;2022-07-23T02:33:13;3.33;;;2.77;;
3523;SDS011;1776;53.330;11.498;2022-07-23T02:35:39;5.00;;;2.33;;
3523;SDS011;1776;53.330;11.498;2022-07-23T02:38:04;3.13;;;2.27;;
3523;SDS011;1776;53.330;11.498;2022-07-23T02:40:29;2.33;;;2.13;;
3523;SDS011;1776;53.330;11.498;2022-07-23T02:42:55;6.30;;;2.30;;
3523;SDS011;1776;53.330;11.498;2022-07-23T02:45:20;5.80;;;2.83;;
3523;SDS011;1776;53.330;11.498;2022-07-23T02:47:45;3.70;;;2.47;;
3523;SDS011;1776;53.330;11.498;2022-07-23T02:50:11;3.97;;;2.60;;
3523;SDS011;1776;53.330;11.498;2022-07-23T02:52:37;3.00;;;2.50;;
3523;SDS011;1776;53.330;11.498;2022-07-23T02:55:02;5.47;;;2.80;;
3523;SDS011;1776;53.330;11.498;2022-07-23T02:57:28;4.10;;;2.63;;
3523;SDS011;1776;53.330;11.498;2022-07-23T02:59:53;4.73;;;2.40;;
3523;SDS011;1776;53.330;11.498;2022-07-23T03:02:18;5.70;;;3.30;;
3523;SDS011;1776;53.330;11.498;2022-07-23T03:04:44;8.27;;;2.53;;
3523;SDS011;1776;53.330;11.498;2022-07-23T03:07:09;3.80;;;3.07;;
3523;SDS011;1776;53.330;11.498;2022-07-23T03:09:34;4.73;;;2.70;;
3523;SDS011;1776;53.330;11.498;2022-07-23T03:11:59;4.30;;;2.43;;
3523;SDS011;1776;53.330;11.498;2022-07-23T03:14:25;2.93;;;2.70;;
3523;SDS011;1776;53.330;11.498;2022-07-23T03:16:50;3.57;;;2.57;;
3523;SDS011;1776;53.330;11.498;2022-07-23T03:19:15;8.10;;;3.30;;
3523;SDS011;1776;53.330;11.498;2022-07-23T03:21:41;5.43;;;3.23;;
3523;SDS011;1776;53.330;11.498;2022-07-23T03:24:09;3.57;;;2.23;;
3523;SDS011;1776;53.330;11.498;2022-07-23T03:26:35;3.90;;;3.03;;
3523;SDS011;1776;53.330;11.498;2022-07-23T03:29:00;5.57;;;3.27;;
3523;SDS011;1776;53.330;11.498;2022-07-23T03:31:28;6.93;;;3.37;;
3523;SDS011;1776;53.330;11.498;2022-07-23T03:33:54;5.50;;;3.57;;
3523;SDS011;1776;53.330;11.498;2022-07-23T03:36:19;6.50;;;2.93;;
3523;SDS011;1776;53.330;11.498;2022-07-23T03:38:44;5.93;;;3.37;;
3523;SDS011;1776;53.330;11.498;2022-07-23T03:41:09;7.57;;;4.30;;
3523;SDS011;1776;53.330;11.498;2022-07-23T03:43:35;7.17;;;3.40;;
3523;SDS011;1776;53.330;11.498;2022-07-23T03:46:00;3.73;;;3.43;;
3523;SDS011;1776;53.330;11.498;2022-07-23T03:48:25;6.70;;;3.67;;
3523;SDS011;1776;53.330;11.498;2022-07-23T03:50:50;4.53;;;4.13;;
3523;SDS011;1776;53.330;11.498;2022-07-23T03:53:16;4.17;;;3.77;;
3523;SDS011;1776;53.330;11.498;2022-07-23T03:55:41;6.60;;;4.30;;
3523;SDS011;1776;53.330;11.498;2022-07-23T03:58:06;4.53;;;4.10;;
3523;SDS011;1776;53.330;11.498;2022-07-23T04:00:32;7.33;;;4.40;;
3523;SDS011;1776;53.330;11.498;2022-07-23T04:02:57;4.80;;;4.40;;
3523;SDS011;1776;53.330;11.498;2022-07-23T04:05:22;7.70;;;3.60;;
3523;SDS011;1776;53.330;11.498;2022-07-23T04:07:48;5.17;;;4.07;;
3523;SDS011;1776;53.330;11.498;2022-07-23T04:10:13;8.20;;;3.57;;
3523;SDS011;1776;53.330;11.498;2022-07-23T04:12:38;5.17;;;4.13;;
3523;SDS011;1776;53.330;11.498;2022-07-23T04:15:04;5.83;;;4.20;;
3523;SDS011;1776;53.330;11.498;2022-07-23T04:17:29;4.50;;;3.77;;
3523;SDS011;1776;53.330;11.498;2022-07-23T04:19:55;12.30;;;5.40;;
3523;SDS011;1776;53.330;11.498;2022-07-23T04:22:20;9.40;;;4.60;;
3523;SDS011;1776;53.330;11.498;2022-07-23T04:24:45;12.37;;;4.43;;
3523;SDS011;1776;53.330;11.498;2022-07-23T04:27:11;3.90;;;3.60;;
3523;SDS011;1776;53.330;11.498;2022-07-23T04:29:36;4.20;;;3.20;;
3523;SDS011;1776;53.330;11.498;2022-07-23T04:32:01;8.03;;;5.00;;
3523;SDS011;1776;53.330;11.498;2022-07-23T04:34:27;10.00;;;4.13;;
3523;SDS011;1776;53.330;11.498;2022-07-23T04:36:52;6.17;;;3.97;;
3523;SDS011;1776;53.330;11.498;2022-07-23T04:39:18;5.43;;;2.73;;
3523;SDS011;1776;53.330;11.498;2022-07-23T04:41:43;3.40;;;3.10;;
3523;SDS011;1776;53.330;11.498;2022-07-23T04:44:09;7.67;;;2.50;;
3523;SDS011;1776;53.330;11.498;2022-07-23T04:46:34;5.87;;;3.40;;
3523;SDS011;1776;53.330;11.498;2022-07-23T04:48:59;5.60;;;2.90;;
3523;SDS011;1776;53.330;11.498;2022-07-23T04:51:24;3.30;;;3.00;;
3523;SDS011;1776;53.330;11.498;2022-07-23T04:53:50;3.77;;;3.30;;
3523;SDS011;1776;53.330;11.498;2022-07-23T04:56:15;5.40;;;3.10;;
3523;SDS011;1776;53.330;11.498;2022-07-23T04:58:40;3.00;;;2.53;;
3523;SDS011;1776;53.330;11.498;2022-07-23T05:01:06;4.53;;;2.40;;
3523;SDS011;1776;53.330;11.498;2022-07-23T05:03:31;3.80;;;3.00;;
3523;SDS011;1776;53.330;11.498;2022-07-23T05:05:57;8.07;;;3.23;;
3523;SDS011;1776;53.330;11.498;2022-07-23T05:08:22;5.00;;;2.33;;
3523;SDS011;1776;53.330;11.498;2022-07-23T05:10:48;2.60;;;2.40;;
3523;SDS011;1776;53.330;11.498;2022-07-23T05:13:17;2.37;;;2.17;;
3523;SDS011;1776;53.330;11.498;2022-07-23T05:15:43;3.57;;;2.60;;
3523;SDS011;1776;53.330;11.498;2022-07-23T05:18:09;2.60;;;2.33;;
3523;SDS011;1776;53.330;11.498;2022-07-23T05:20:34;3.40;;;2.37;;
3523;SDS011;1776;53.330;11.498;2022-07-23T05:23:00;3.00;;;2.37;;
3523;SDS011;1776;53.330;11.498;2022-07-23T05:25:25;3.80;;;2.43;;
3523;SDS011;1776;53.330;11.498;2022-07-23T05:27:51;6.70;;;2.30;;
3523;SDS011;1776;53.330;11.498;2022-07-23T05:30:16;4.20;;;2.60;;
3523;SDS011;1776;53.330;11.498;2022-07-23T05:32:41;4.03;;;2.20;;
3523;SDS011;1776;53.330;11.498;2022-07-23T05:35:07;3.90;;;2.70;;
3523;SDS011;1776;53.330;11.498;2022-07-23T05:37:32;2.60;;;2.40;;
3523;SDS011;1776;53.330;11.498;2022-07-23T05:40:02;3.67;;;2.43;;
3523;SDS011;1776;53.330;11.498;2022-07-23T05:42:28;5.17;;;2.60;;
3523;SDS011;1776;53.330;11.498;2022-07-23T05:44:54;5.17;;;2.77;;
3523;SDS011;1776;53.330;11.498;2022-07-23T05:47:19;2.27;;;1.90;;
3523;SDS011;1776;53.330;11.498;2022-07-23T05:49:44;3.10;;;2.10;;
3523;SDS011;1776;53.330;11.498;2022-07-23T05:52:10;4.90;;;2.07;;
3523;SDS011;1776;53.330;11.498;2022-07-23T05:54:35;6.60;;;1.90;;
3523;SDS011;1776;53.330;11.498;2022-07-23T05:57:00;2.97;;;2.43;;
3523;SDS011;1776;53.330;11.498;2022-07-23T05:59:26;1.80;;;1.67;;
3523;SDS011;1776;53.330;11.498;2022-07-23T06:01:51;2.43;;;2.20;;
3523;SDS011;1776;53.330;11.498;2022-07-23T06:04:16;5.70;;;2.13;;
3523;SDS011;1776;53.330;11.498;2022-07-23T06:06:41;2.17;;;1.93;;
3523;SDS011;1776;53.330;11.498;2022-07-23T06:09:07;4.63;;;1.90;;
3523;SDS011;1776;53.330;11.498;2022-07-23T06:11:32;4.60;;;2.67;;
3523;SDS011;1776;53.330;11.498;2022-07-23T06:13:58;6.30;;;1.90;;
3523;SDS011;1776;53.330;11.498;2022-07-23T06:16:23;2.70;;;1.80;;
3523;SDS011;1776;53.330;11.498;2022-07-23T06:18:48;2.40;;;2.20;;
3523;SDS011;1776;53.330;11.498;2022-07-23T06:21:14;3.37;;;2.50;;
3523;SDS011;1776;53.330;11.498;2022-07-23T06:23:39;2.07;;;1.87;;
3523;SDS011;1776;53.330;11.498;2022-07-23T06:26:04;4.93;;;1.97;;
3523;SDS011;1776;53.330;11.498;2022-07-23T06:28:29;4.57;;;2.17;;
3523;SDS011;1776;53.330;11.498;2022-07-23T06:30:55;2.30;;;1.70;;
3523;SDS011;1776;53.330;11.498;2022-07-23T06:33:20;2.40;;;2.20;;
3523;SDS011;1776;53.330;11.498;2022-07-23T06:35:45;2.30;;;1.80;;
3523;SDS011;1776;53.330;11.498;2022-07-23T06:38:11;4.63;;;2.73;;
3523;SDS011;1776;53.330;11.498;2022-07-23T06:40:36;3.50;;;2.27;;
3523;SDS011;1776;53.330;11.498;2022-07-23T06:43:01;3.53;;;2.20;;
3523;SDS011;1776;53.330;11.498;2022-07-23T06:45:26;2.20;;;2.00;;
3523;SDS011;1776;53.330;11.498;2022-07-23T06:47:52;3.90;;;2.17;;
3523;SDS011;1776;53.330;11.498;2022-07-23T06:50:17;3.30;;;1.70;;
3523;SDS011;1776;53.330;11.498;2022-07-23T06:52:42;3.60;;;1.70;;
3523;SDS011;1776;53.330;11.498;2022-07-23T06:55:08;2.40;;;2.20;;
3523;SDS011;1776;53.330;11.498;2022-07-23T06:57:34;2.50;;;2.30;;
3523;SDS011;1776;53.330;11.498;2022-07-23T06:59:59;3.13;;;2.40;;
3523;SDS011;1776;53.330;11.498;2022-07-23T07:02:24;2.67;;;2.13;;
3523;SDS011;1776;53.330;11.498;2022-07-23T07:04:50;1.50;;;1.40;;
3523;SDS011;1776;53.330;11.498;2022-07-23T07:07:15;5.07;;;2.40;;
3523;SDS011;1776;53.330;11.498;2022-07-23T07:09:40;1.87;;;1.67;;
3523;SDS011;1776;53.330;11.498;2022-07-23T07:12:06;4.20;;;1.57;;
3523;SDS011;1776;53.330;11.498;2022-07-23T07:14:31;4.40;;;1.70;;
3523;SDS011;1776;53.330;11.498;2022-07-23T07:16:57;2.00;;;1.47;;
3523;SDS011;1776;53.330;11.498;2022-07-23T07:19:22;2.10;;;1.20;;
3523;SDS011;1776;53.330;11.498;2022-07-23T07:21:47;1.90;;;1.50;;
3523;SDS011;1776;53.330;11.498;2022-07-23T07:24:12;2.70;;;1.37;;
3523;SDS011;1776;53.330;11.498;2022-07-23T07:26:38;3.60;;;1.47;;
3523;SDS011;1776;53.330;11.498;2022-07-23T07:29:04;3.17;;;1.40;;
3523;SDS011;1776;53.330;11.498;2022-07-23T07:31:30;1.67;;;1.20;;
3523;SDS011;1776;53.330;11.498;2022-07-23T07:33:55;2.20;;;1.37;;
3523;SDS011;1776;53.330;11.498;2022-07-23T07:36:21;1.30;;;0.93;;
3523;SDS011;1776;53.330;11.498;2022-07-23T07:38:47;1.23;;;1.13;;
3523;SDS011;1776;53.330;11.498;2022-07-23T07:41:12;1.33;;;1.20;;
3523;SDS011;1776;53.330;11.498;2022-07-23T07:43:38;1.90;;;0.87;;
3523;SDS011;1776;53.330;11.498;2022-07-23T07:46:03;1.77;;;1.17;;
3523;SDS011;1776;53.330;11.498;2022-07-23T07:48:29;6.37;;;1.40;;
3523;SDS011;1776;53.330;11.498;2022-07-23T07:50:54;1.93;;;1.07;;
3523;SDS011;1776;53.330;11.498;2022-07-23T07:53:19;1.33;;;1.17;;
3523;SDS011;1776;53.330;11.498;2022-07-23T07:55:45;4.93;;;1.10;;
3523;SDS011;1776;53.330;11.498;2022-07-23T07:58:10;4.07;;;1.40;;
3523;SDS011;1776;53.330;11.498;2022-07-23T08:00:36;1.10;;;0.90;;
3523;SDS011;1776;53.330;11.498;2022-07-23T08:03:01;0.87;;;0.87;;
3523;SDS011;1776;53.330;11.498;2022-07-23T08:05:27;1.80;;;1.30;;
3523;SDS011;1776;53.330;11.498;2022-07-23T08:07:54;2.57;;;1.13;;
3523;SDS011;1776;53.330;11.498;2022-07-23T08:10:20;1.57;;;1.47;;
3523;SDS011;1776;53.330;11.498;2022-07-23T08:12:47;2.17;;;1.23;;
3523;SDS011;1776;53.330;11.498;2022-07-23T08:15:15;2.73;;;1.30;;
3523;SDS011;1776;53.330;11.498;2022-07-23T08:17:42;1.50;;;1.00;;
3523;SDS011;1776;53.330;11.498;2022-07-23T08:20:09;3.80;;;1.33;;
3523;SDS011;1776;53.330;11.498;2022-07-23T08:25:07;2.10;;;1.90;;
3523;SDS011;1776;53.330;11.498;2022-07-23T08:27:32;3.10;;;1.10;;
3523;SDS011;1776;53.330;11.498;2022-07-23T08:29:57;2.30;;;1.07;;
3523;SDS011;1776;53.330;11.498;2022-07-23T08:32:22;1.70;;;1.40;;
3523;SDS011;1776;53.330;11.498;2022-07-23T08:34:48;4.50;;;1.17;;
3523;SDS011;1776;53.330;11.498;2022-07-23T08:37:13;3.23;;;1.43;;
3523;SDS011;1776;53.330;11.498;2022-07-23T08:39:38;1.70;;;1.07;;
3523;SDS011;1776;53.330;11.498;2022-07-23T08:42:04;3.60;;;1.00;;
3523;SDS011;1776;53.330;11.498;2022-07-23T08:44:29;2.57;;;0.90;;
3523;SDS011;1776;53.330;11.498;2022-07-23T08:46:54;3.40;;;0.90;;
3523;SDS011;1776;53.330;11.498;2022-07-23T08:49:20;1.43;;;1.13;;
3523;SDS011;1776;53.330;11.498;2022-07-23T08:51:46;7.63;;;1.70;;
3523;SDS011;1776;53.330;11.498;2022-07-23T08:54:12;1.03;;;1.03;;
3523;SDS011;1776;53.330;11.498;2022-07-23T08:56:37;1.80;;;1.20;;
3523;SDS011;1776;53.330;11.498;2022-07-23T08:59:03;1.90;;;0.87;;
3523;SDS011;1776;53.330;11.498;2022-07-23T09:01:28;3.23;;;1.33;;
3523;SDS011;1776;53.330;11.498;2022-07-23T09:03:53;2.90;;;1.23;;
3523;SDS011;1776;53.330;11.498;2022-07-23T09:06:19;1.73;;;1.00;;
3523;SDS011;1776;53.330;11.498;2022-07-23T09:08:44;3.10;;;1.00;;
3523;SDS011;1776;53.330;11.498;2022-07-23T09:11:11;9.27;;;1.40;;
3523;SDS011;1776;53.330;11.498;2022-07-23T09:16:14;2.63;;;1.07;;
3523;SDS011;1776;53.330;11.498;2022-07-23T09:18:43;1.27;;;1.20;;
3523;SDS011;1776;53.330;11.498;2022-07-23T09:21:17;2.70;;;1.70;;
3523;SDS011;1776;53.330;11.498;2022-07-23T09:24:04;1.40;;;1.20;;
3523;SDS011;1776;53.330;11.498;2022-07-23T09:26:35;2.60;;;1.20;;
3523;SDS011;1776;53.330;11.498;2022-07-23T09:29:23;4.60;;;1.70;;
3523;SDS011;1776;53.330;11.498;2022-07-23T09:31:53;1.87;;;1.10;;
3523;SDS011;1776;53.330;11.498;2022-07-23T09:34:25;1.87;;;0.90;;
3523;SDS011;1776;53.330;11.498;2022-07-23T09:36:53;3.33;;;1.40;;
3523;SDS011;1776;53.330;11.498;2022-07-23T09:39:27;3.43;;;1.10;;
3523;SDS011;1776;53.330;11.498;2022-07-23T09:41:55;3.10;;;1.00;;
3523;SDS011;1776;53.330;11.498;2022-07-23T09:44:21;1.73;;;1.20;;
3523;SDS011;1776;53.330;11.498;2022-07-23T09:46:47;1.77;;;1.00;;
3523;SDS011;1776;53.330;11.498;2022-07-23T09:49:18;1.67;;;1.10;;
3523;SDS011;1776;53.330;11.498;2022-07-23T09:54:25;1.40;;;1.30;;
3523;SDS011;1776;53.330;11.498;2022-07-23T09:56:54;1.10;;;1.00;;
3523;SDS011;1776;53.330;11.498;2022-07-23T09:59:25;3.37;;;0.97;;
3523;SDS011;1776;53.330;11.498;2022-07-23T10:01:55;1.00;;;0.83;;
3523;SDS011;1776;53.330;11.498;2022-07-23T10:04:22;2.03;;;1.00;;
3523;SDS011;1776;53.330;11.498;2022-07-23T10:06:50;3.50;;;1.17;;
3523;SDS011;1776;53.330;11.498;2022-07-23T10:09:17;2.93;;;1.23;;
3523;SDS011;1776;53.330;11.498;2022-07-23T10:11:48;1.37;;;0.97;;
3523;SDS011;1776;53.330;11.498;2022-07-23T10:14:16;3.10;;;1.27;;
3523;SDS011;1776;53.330;11.498;2022-07-23T10:16:43;1.10;;;0.80;;
3523;SDS011;1776;53.330;11.498;2022-07-23T10:19:08;1.53;;;0.93;;
3523;SDS011;1776;53.330;11.498;2022-07-23T10:21:37;1.07;;;1.00;;
3523;SDS011;1776;53.330;11.498;2022-07-23T10:24:10;2.90;;;1.10;;
3523;SDS011;1776;53.330;11.498;2022-07-23T10:29:45;0.60;;;0.60;;
3523;SDS011;1776;53.330;11.498;2022-07-23T10:37:54;3.27;;;1.00;;
3523;SDS011;1776;53.330;11.498;2022-07-23T10:40:32;1.47;;;0.87;;
3523;SDS011;1776;53.330;11.498;2022-07-23T10:42:58;1.63;;;1.07;;
3523;SDS011;1776;53.330;11.498;2022-07-23T10:47:54;2.40;;;1.50;;
3523;SDS011;1776;53.330;11.498;2022-07-23T10:50:22;2.13;;;0.70;;
3523;SDS011;1776;53.330;11.498;2022-07-23T10:57:59;1.27;;;0.90;;
3523;SDS011;1776;53.330;11.498;2022-07-23T11:00:30;1.00;;;0.90;;
3523;SDS011;1776;53.330;11.498;2022-07-23T11:03:01;0.93;;;0.73;;
3523;SDS011;1776;53.330;11.498;2022-07-23T11:05:42;1.90;;;1.00;;
3523;SDS011;1776;53.330;11.498;2022-07-23T11:10:41;0.90;;;0.90;;
3523;SDS011;1776;53.330;11.498;2022-07-23T11:24:06;1.93;;;1.37;;
3523;SDS011;1776;53.330;11.498;2022-07-23T11:32:36;1.83;;;1.10;;
3523;SDS011;1776;53.330;11.498;2022-07-23T11:34:42;1.20;;;1.10;;
3523;SDS011;1776;53.330;11.498;2022-07-23T11:37:12;1.43;;;1.10;;
3523;SDS011;1776;53.330;11.498;2022-07-23T11:39:56;1.17;;;1.07;;
3523;SDS011;1776;53.330;11.498;2022-07-23T11:42:22;2.80;;;1.50;;
3523;SDS011;1776;53.330;11.498;2022-07-23T11:44:49;1.87;;;1.00;;
3523;SDS011;1776;53.330;11.498;2022-07-23T11:47:14;1.77;;;1.37;;
3523;SDS011;1776;53.330;11.498;2022-07-23T11:49:51;1.53;;;0.90;;
3523;SDS011;1776;53.330;11.498;2022-07-23T11:52:28;1.13;;;0.80;;
3523;SDS011;1776;53.330;11.498;2022-07-23T11:55:04;1.57;;;0.90;;
3523;SDS011;1776;53.330;11.498;2022-07-23T11:57:33;1.47;;;0.67;;
3523;SDS011;1776;53.330;11.498;2022-07-23T12:02:31;1.43;;;0.83;;
3523;SDS011;1776;53.330;11.498;2022-07-23T12:04:56;2.60;;;0.83;;
3523;SDS011;1776;53.330;11.498;2022-07-23T12:10:19;1.10;;;0.90;;
3523;SDS011;1776;53.330;11.498;2022-07-23T12:12:48;4.00;;;1.13;;
3523;SDS011;1776;53.330;11.498;2022-07-23T12:15:18;0.80;;;0.80;;
3523;SDS011;1776;53.330;11.498;2022-07-23T12:17:46;1.10;;;0.90;;
3523;SDS011;1776;53.330;11.498;2022-07-23T12:20:13;1.70;;;0.90;;
3523;SDS011;1776;53.330;11.498;2022-07-23T12:22:42;1.30;;;1.00;;
3523;SDS011;1776;53.330;11.498;2022-07-23T12:25:13;2.23;;;1.20;;
3523;SDS011;1776;53.330;11.498;2022-07-23T12:27:44;1.00;;;0.80;;
3523;SDS011;1776;53.330;11.498;2022-07-23T12:30:20;4.40;;;0.90;;
3523;SDS011;1776;53.330;11.498;2022-07-23T12:32:49;3.07;;;0.90;;
3523;SDS011;1776;53.330;11.498;2022-07-23T12:35:16;2.07;;;0.80;;
3523;SDS011;1776;53.330;11.498;2022-07-23T12:37:43;0.70;;;0.70;;
3523;SDS011;1776;53.330;11.498;2022-07-23T12:40:23;0.90;;;0.60;;
3523;SDS011;1776;53.330;11.498;2022-07-23T12:45:23;2.07;;;0.90;;
3523;SDS011;1776;53.330;11.498;2022-07-23T12:47:50;2.33;;;0.70;;
3523;SDS011;1776;53.330;11.498;2022-07-23T12:53:10;3.07;;;0.90;;
3523;SDS011;1776;53.330;11.498;2022-07-23T12:55:50;1.70;;;1.00;;
3523;SDS011;1776;53.330;11.498;2022-07-23T12:58:23;2.37;;;1.00;;
3523;SDS011;1776;53.330;11.498;2022-07-23T13:00:57;0.90;;;0.70;;
3523;SDS011;1776;53.330;11.498;2022-07-23T13:03:25;2.17;;;1.20;;
3523;SDS011;1776;53.330;11.498;2022-07-23T13:05:56;2.30;;;0.93;;
3523;SDS011;1776;53.330;11.498;2022-07-23T13:08:21;1.73;;;0.90;;
3523;SDS011;1776;53.330;11.498;2022-07-23T13:10:47;0.97;;;0.83;;
3523;SDS011;1776;53.330;11.498;2022-07-23T13:13:14;2.97;;;1.13;;
3523;SDS011;1776;53.330;11.498;2022-07-23T13:15:40;1.53;;;1.13;;
3523;SDS011;1776;53.330;11.498;2022-07-23T13:18:06;2.10;;;0.90;;
3523;SDS011;1776;53.330;11.498;2022-07-23T13:20:31;2.73;;;1.27;;
3523;SDS011;1776;53.330;11.498;2022-07-23T13:22:58;0.83;;;0.70;;
3523;SDS011;1776;53.330;11.498;2022-07-23T13:25:24;1.63;;;0.80;;
3523;SDS011;1776;53.330;11.498;2022-07-23T13:27:49;1.13;;;1.03;;
3523;SDS011;1776;53.330;11.498;2022-07-23T13:30:15;1.17;;;0.80;;
3523;SDS011;1776;53.330;11.498;2022-07-23T13:32:40;1.20;;;0.77;;
3523;SDS011;1776;53.330;11.498;2022-07-23T13:35:05;6.83;;;1.00;;
3523;SDS011;1776;53.330;11.498;2022-07-23T13:37:31;1.80;;;0.80;;
3523;SDS011;1776;53.330;11.498;2022-07-23T13:39:57;1.10;;;0.80;;
3523;SDS011;1776;53.330;11.498;2022-07-23T13:42:22;0.80;;;0.80;;
3523;SDS011;1776;53.330;11.498;2022-07-23T13:44:47;1.00;;;0.87;;
3523;SDS011;1776;53.330;11.498;2022-07-23T13:47:12;4.20;;;0.90;;
3523;SDS011;1776;53.330;11.498;2022-07-23T13:49:38;0.73;;;0.70;;
3523;SDS011;1776;53.330;11.498;2022-07-23T13:52:03;1.10;;;0.83;;
3523;SDS011;1776;53.330;11.498;2022-07-23T13:54:29;1.03;;;0.80;;
3523;SDS011;1776;53.330;11.498;2022-07-23T13:56:54;1.47;;;0.83;;
3523;SDS011;1776;53.330;11.498;2022-07-23T13:59:20;0.70;;;0.70;;
3523;SDS011;1776;53.330;11.498;2022-07-23T14:01:46;1.37;;;0.70;;
3523;SDS011;1776;53.330;11.498;2022-07-23T14:04:11;0.80;;;0.70;;
3523;SDS011;1776;53.330;11.498;2022-07-23T14:06:36;1.07;;;0.70;;
3523;SDS011;1776;53.330;11.498;2022-07-23T14:09:02;1.23;;;0.70;;
3523;SDS011;1776;53.330;11.498;2022-07-23T14:11:27;0.80;;;0.80;;
3523;SDS011;1776;53.330;11.498;2022-07-23T14:13:55;2.40;;;0.80;;
3523;SDS011;1776;53.330;11.498;2022-07-23T14:16:20;1.80;;;0.87;;
3523;SDS011;1776;53.330;11.498;2022-07-23T14:18:46;1.50;;;0.90;;
3523;SDS011;1776;53.330;11.498;2022-07-23T14:21:11;3.00;;;1.00;;
3523;SDS011;1776;53.330;11.498;2022-07-23T14:23:36;1.27;;;1.07;;
3523;SDS011;1776;53.330;11.498;2022-07-23T14:26:02;1.20;;;0.70;;
3523;SDS011;1776;53.330;11.498;2022-07-23T14:28:27;2.77;;;0.70;;
3523;SDS011;1776;53.330;11.498;2022-07-23T14:30:53;1.70;;;0.70;;
3523;SDS011;1776;53.330;11.498;2022-07-23T14:33:18;1.50;;;1.40;;
3523;SDS011;1776;53.330;11.498;2022-07-23T14:35:44;1.07;;;0.60;;
3523;SDS011;1776;53.330;11.498;2022-07-23T14:38:09;1.00;;;0.80;;
3523;SDS011;1776;53.330;11.498;2022-07-23T14:40:35;5.97;;;0.80;;
3523;SDS011;1776;53.330;11.498;2022-07-23T14:43:00;2.03;;;0.70;;
3523;SDS011;1776;53.330;11.498;2022-07-23T14:45:25;2.30;;;0.70;;
3523;SDS011;1776;53.330;11.498;2022-07-23T14:47:51;0.70;;;0.60;;
3523;SDS011;1776;53.330;11.498;2022-07-23T14:50:16;3.47;;;0.90;;
3523;SDS011;1776;53.330;11.498;2022-07-23T14:52:41;1.00;;;0.80;;
3523;SDS011;1776;53.330;11.498;2022-07-23T14:55:07;1.50;;;0.70;;
3523;SDS011;1776;53.330;11.498;2022-07-23T14:57:33;1.80;;;0.60;;
3523;SDS011;1776;53.330;11.498;2022-07-23T14:59:58;1.30;;;0.70;;
3523;SDS011;1776;53.330;11.498;2022-07-23T15:02:23;0.93;;;0.60;;
3523;SDS011;1776;53.330;11.498;2022-07-23T15:04:49;4.00;;;0.90;;
3523;SDS011;1776;53.330;11.498;2022-07-23T15:07:14;3.97;;;0.80;;
3523;SDS011;1776;53.330;11.498;2022-07-23T15:09:39;2.00;;;0.67;;
3523;SDS011;1776;53.330;11.498;2022-07-23T15:12:05;1.17;;;0.70;;
3523;SDS011;1776;53.330;11.498;2022-07-23T15:14:30;1.10;;;0.80;;
3523;SDS011;1776;53.330;11.498;2022-07-23T15:16:55;3.53;;;0.60;;
3523;SDS011;1776;53.330;11.498;2022-07-23T15:19:21;1.20;;;0.80;;
3523;SDS011;1776;53.330;11.498;2022-07-23T15:21:46;2.80;;;1.00;;
3523;SDS011;1776;53.330;11.498;2022-07-23T15:24:11;1.10;;;0.70;;
3523;SDS011;1776;53.330;11.498;2022-07-23T15:26:37;1.80;;;1.00;;
3523;SDS011;1776;53.330;11.498;2022-07-23T15:29:02;2.50;;;0.70;;
3523;SDS011;1776;53.330;11.498;2022-07-23T15:31:30;1.20;;;1.00;;
3523;SDS011;1776;53.330;11.498;2022-07-23T15:33:56;1.40;;;0.87;;
3523;SDS011;1776;53.330;11.498;2022-07-23T15:36:21;1.70;;;1.23;;
3523;SDS011;1776;53.330;11.498;2022-07-23T15:38:46;3.80;;;0.90;;
3523;SDS011;1776;53.330;11.498;2022-07-23T15:41:12;1.93;;;1.00;;
3523;SDS011;1776;53.330;11.498;2022-07-23T15:43:38;1.63;;;0.73;;
3523;SDS011;1776;53.330;11.498;2022-07-23T15:46:03;2.93;;;1.07;;
3523;SDS011;1776;53.330;11.498;2022-07-23T15:48:29;1.70;;;0.90;;
3523;SDS011;1776;53.330;11.498;2022-07-23T15:50:54;2.43;;;0.87;;